createdAt,value
2023-09-02T00:00:54.905Z,98705.50
2023-09-02T00:03:21.898Z,98709.91
2023-09-02T00:05:48.713Z,98700.03
2023-09-02T00:08:15.413Z,98707.09
2023-09-02T00:10:42.136Z,98706.50
2023-09-02T00:13:08.926Z,98711.13
2023-09-02T00:15:35.599Z,98705.44
2023-09-02T00:18:02.337Z,98707.34
2023-09-02T00:20:29.079Z,98699.38
2023-09-02T00:22:55.846Z,98699.63
2023-09-02T00:25:23.925Z,98703.22
2023-09-02T00:27:50.706Z,98701.16
2023-09-02T00:30:17.471Z,98698.56
2023-09-02T00:32:44.281Z,98700.28
2023-09-02T00:35:11.462Z,98694.53
2023-09-02T00:37:38.244Z,98696.47
2023-09-02T00:40:06.987Z,98693.59
2023-09-02T00:42:35.004Z,98696.75
2023-09-02T00:45:01.914Z,98696.09
2023-09-02T00:47:29.050Z,98693.13
2023-09-02T00:49:56.134Z,98698.16
2023-09-02T00:52:22.879Z,98689.97
2023-09-02T00:54:49.574Z,98697.72
2023-09-02T00:57:16.443Z,98695.00
2023-09-02T00:59:43.318Z,98695.28
2023-09-02T01:02:10.580Z,98685.00
2023-09-02T01:04:37.710Z,98688.63
2023-09-02T01:07:04.669Z,98703.13
2023-09-02T01:09:32.015Z,98702.38
2023-09-02T01:11:58.870Z,98700.78
2023-09-02T01:14:25.659Z,98697.25
2023-09-02T01:16:52.553Z,98705.38
2023-09-02T01:19:21.334Z,98703.66
2023-09-02T01:21:59.469Z,98707.81
2023-09-02T01:24:55.376Z,98709.88
2023-09-02T01:27:53.338Z,98701.75
2023-09-02T01:30:24.946Z,98700.19
2023-09-02T01:32:54.570Z,98699.72
2023-09-02T01:35:25.597Z,98695.31
2023-09-02T01:37:56.390Z,98697.81
2023-09-02T01:40:27.968Z,98700.97
2023-09-02T01:42:58.023Z,98703.88
2023-09-02T01:45:32.144Z,98702.94
2023-09-02T01:47:59.562Z,98707.66
2023-09-02T01:50:29.753Z,98704.19
2023-09-02T01:53:00.112Z,98713.13
2023-09-02T01:55:27.646Z,98714.53
2023-09-02T01:57:56.550Z,98711.22
2023-09-02T02:00:23.420Z,98708.25
2023-09-02T02:02:56.166Z,98707.44
2023-09-02T02:05:46.095Z,98709.59
2023-09-02T02:08:17.134Z,98709.50
2023-09-02T02:10:46.736Z,98705.69
2023-09-02T02:13:14.172Z,98711.75
2023-09-02T02:15:40.867Z,98704.88
2023-09-02T02:18:10.345Z,98707.03
2023-09-02T02:20:58.364Z,98706.44
2023-09-02T02:23:25.090Z,98710.00
2023-09-02T02:25:51.918Z,98702.88
2023-09-02T02:28:19.587Z,98707.78
2023-09-02T02:30:48.783Z,98698.25
2023-09-02T02:33:15.670Z,98706.44
2023-09-02T02:35:42.582Z,98691.66
2023-09-02T02:38:09.336Z,98695.75
2023-09-02T02:40:37.173Z,98701.78
2023-09-02T02:43:04.100Z,98700.81
2023-09-02T02:45:30.894Z,98706.19
2023-09-02T02:48:01.221Z,98703.75
2023-09-02T02:50:28.015Z,98706.91
2023-09-02T02:52:54.773Z,98710.78
2023-09-02T02:55:24.131Z,98707.38
2023-09-02T02:57:50.926Z,98711.50
2023-09-02T03:00:17.685Z,98714.69
2023-09-02T03:02:44.533Z,98717.50
2023-09-02T03:05:11.336Z,98726.31
2023-09-02T03:07:40.551Z,98725.22
2023-09-02T03:10:07.793Z,98714.97
2023-09-02T03:12:34.471Z,98724.91
2023-09-02T03:15:01.181Z,98726.91
2023-09-02T03:17:27.948Z,98724.88
2023-09-02T03:19:54.700Z,98727.44
2023-09-02T03:22:21.515Z,98729.47
2023-09-02T03:24:54.594Z,98728.06
2023-09-02T03:27:21.964Z,98724.53
2023-09-02T03:29:50.548Z,98721.41
2023-09-02T03:32:17.737Z,98728.75
2023-09-02T03:34:44.578Z,98735.63
2023-09-02T03:37:11.361Z,98731.97
2023-09-02T03:39:38.159Z,98731.97
2023-09-02T03:42:05.333Z,98731.22
2023-09-02T03:44:32.795Z,98733.31
2023-09-02T03:46:59.636Z,98730.16
2023-09-02T03:49:28.486Z,98733.88
2023-09-02T03:51:55.426Z,98747.69
2023-09-02T03:54:22.270Z,98747.84
2023-09-02T03:56:48.998Z,98750.03
2023-09-02T03:59:15.664Z,98749.75
2023-09-02T04:01:42.407Z,98750.69
2023-09-02T04:04:09.183Z,98751.31
2023-09-02T04:06:35.931Z,98754.50
2023-09-02T04:09:02.674Z,98745.47
2023-09-02T04:11:29.380Z,98740.94
2023-09-02T04:13:56.227Z,98749.09
2023-09-02T04:16:23.036Z,98749.53
2023-09-02T04:18:49.857Z,98748.25
2023-09-02T04:21:16.602Z,98745.22
2023-09-02T04:23:43.464Z,98749.38
2023-09-02T04:26:10.152Z,98743.91
2023-09-02T04:28:42.073Z,98745.44
2023-09-02T04:31:08.756Z,98751.47
2023-09-02T04:33:35.597Z,98755.34
2023-09-02T04:36:03.970Z,98747.16
2023-09-02T04:38:30.825Z,98747.91
2023-09-02T04:40:57.787Z,98752.03
2023-09-02T04:43:24.455Z,98761.97
2023-09-02T04:45:51.341Z,98763.69
2023-09-02T04:48:18.184Z,98758.16
2023-09-02T04:50:45.095Z,98762.09
2023-09-02T04:53:11.926Z,98753.28
2023-09-02T04:55:49.424Z,98760.06
2023-09-02T04:58:16.334Z,98757.88
2023-09-02T05:00:43.031Z,98759.97
2023-09-02T05:03:10.219Z,98766.50
2023-09-02T05:05:37.492Z,98752.44
2023-09-02T05:08:04.568Z,98750.22
2023-09-02T05:10:31.452Z,98755.25
2023-09-02T05:12:58.173Z,98751.91
2023-09-02T05:15:25.051Z,98751.75
2023-09-02T05:17:52.329Z,98748.84
2023-09-02T05:20:19.163Z,98753.63
2023-09-02T05:22:46.062Z,98753.16
2023-09-02T05:25:12.873Z,98748.84
2023-09-02T05:27:40.267Z,98747.31
2023-09-02T05:30:07.677Z,98747.44
2023-09-02T05:32:34.732Z,98746.34
2023-09-02T05:35:01.558Z,98750.25
2023-09-02T05:37:28.231Z,98746.47
2023-09-02T05:39:54.958Z,98750.97
2023-09-02T05:42:21.694Z,98749.31
2023-09-02T05:44:48.501Z,98747.69
2023-09-02T05:47:15.243Z,98741.53
2023-09-02T05:49:42.009Z,98746.13
2023-09-02T05:52:08.773Z,98751.53
2023-09-02T05:54:35.511Z,98749.53
2023-09-02T05:57:02.367Z,98743.63
2023-09-02T05:59:30.540Z,98748.16
2023-09-02T06:01:58.060Z,98749.78
2023-09-02T06:04:24.652Z,98751.28
2023-09-02T06:06:51.692Z,98746.63
2023-09-02T06:09:18.420Z,98748.63
2023-09-02T06:11:45.157Z,98751.09
2023-09-02T06:14:11.889Z,98752.09
2023-09-02T06:16:38.820Z,98759.38
2023-09-02T06:19:05.603Z,98760.38
2023-09-02T06:21:32.478Z,98749.63
2023-09-02T06:23:59.230Z,98754.19
2023-09-02T06:26:26.977Z,98760.72
2023-09-02T06:28:53.812Z,98758.81
2023-09-02T06:31:20.608Z,98765.00
2023-09-02T06:33:47.409Z,98765.84
2023-09-02T06:36:17.618Z,98768.50
2023-09-02T06:38:45.081Z,98770.81
2023-09-02T06:41:16.731Z,98771.94
2023-09-02T06:43:44.248Z,98765.34
2023-09-02T06:46:12.793Z,98766.88
2023-09-02T06:48:39.775Z,98765.03
2023-09-02T06:51:06.563Z,98773.75
2023-09-02T06:53:33.412Z,98763.88
2023-09-02T06:56:00.212Z,98773.97
2023-09-02T06:58:26.998Z,98771.03
2023-09-02T07:00:53.899Z,98777.66
2023-09-02T07:03:21.178Z,98773.28
2023-09-02T07:05:48.143Z,98773.03
2023-09-02T07:08:14.946Z,98773.66
2023-09-02T07:10:42.095Z,98775.84
2023-09-02T07:13:08.881Z,98772.94
2023-09-02T07:15:38.735Z,98773.56
2023-09-02T07:18:06.173Z,98770.00
2023-09-02T07:20:37.948Z,98766.06
2023-09-02T07:23:04.983Z,98766.69
2023-09-02T07:25:31.797Z,98762.97
2023-09-02T07:27:58.585Z,98764.19
2023-09-02T07:30:25.448Z,98760.59
2023-09-02T07:32:52.335Z,98764.50
2023-09-02T07:35:19.158Z,98770.81
2023-09-02T07:37:45.912Z,98765.75
2023-09-02T07:40:12.638Z,98765.66
2023-09-02T07:42:39.412Z,98760.63
2023-09-02T07:45:06.736Z,98765.06
2023-09-02T07:47:33.534Z,98767.94
2023-09-02T07:50:00.405Z,98772.88
2023-09-02T07:52:27.280Z,98770.31
2023-09-02T07:54:53.982Z,98768.78
2023-09-02T07:57:20.768Z,98766.56
2023-09-02T07:59:47.585Z,98767.56
2023-09-02T08:02:14.362Z,98761.56
2023-09-02T08:04:41.110Z,98762.19
2023-09-02T08:07:07.813Z,98767.75
2023-09-02T08:09:34.753Z,98765.41
2023-09-02T08:12:10.054Z,98767.38
2023-09-02T08:14:36.921Z,98767.09
2023-09-02T08:17:03.819Z,98767.16
2023-09-02T08:19:34.019Z,98759.66
2023-09-02T08:22:00.928Z,98769.28
2023-09-02T08:24:27.811Z,98761.59
2023-09-02T08:27:04.593Z,98764.59
2023-09-02T08:29:33.778Z,98762.13
2023-09-02T08:32:01.911Z,98765.34
2023-09-02T08:34:28.838Z,98753.31
2023-09-02T08:36:55.673Z,98762.66
2023-09-02T08:39:22.562Z,98761.28
2023-09-02T08:41:52.527Z,98764.09
2023-09-02T08:44:21.633Z,98769.03
2023-09-02T08:46:57.209Z,98771.00
2023-09-02T08:49:24.988Z,98769.53
2023-09-02T08:51:53.851Z,98762.47
2023-09-02T08:54:22.977Z,98770.06
2023-09-02T08:56:50.406Z,98767.28
2023-09-02T08:59:17.436Z,98778.56
2023-09-02T09:01:50.271Z,98778.09
2023-09-02T09:04:18.956Z,98778.03
2023-09-02T09:06:46.020Z,98777.06
2023-09-02T09:09:12.935Z,98775.44
2023-09-02T09:11:44.537Z,98773.34
2023-09-02T09:14:18.288Z,98771.34
2023-09-02T09:16:46.874Z,98769.72
2023-09-02T09:19:13.648Z,98772.94
2023-09-02T09:21:40.600Z,98772.03
2023-09-02T09:24:12.561Z,98773.31
2023-09-02T09:26:39.827Z,98769.53
2023-09-02T09:29:11.297Z,98761.00
2023-09-02T09:31:38.074Z,98755.94
2023-09-02T09:34:05.867Z,98755.44
2023-09-02T09:36:32.963Z,98752.06
2023-09-02T09:39:03.691Z,98760.69
2023-09-02T09:41:31.183Z,98749.97
2023-09-02T09:44:17.292Z,98756.53
2023-09-02T09:46:44.054Z,98749.56
2023-09-02T09:49:23.699Z,98748.78
2023-09-02T09:52:02.916Z,98748.56
2023-09-02T09:54:37.904Z,98752.91
2023-09-02T09:57:15.318Z,98758.75
2023-09-02T09:59:54.877Z,98765.56
2023-09-02T10:02:22.840Z,98754.13
2023-09-02T10:04:54.421Z,98747.34
2023-09-02T10:07:26.400Z,98741.50
2023-09-02T10:09:57.670Z,98748.56
2023-09-02T10:12:24.638Z,98743.63
2023-09-02T10:14:52.111Z,98758.31
2023-09-02T10:17:19.647Z,98756.28
2023-09-02T10:19:47.664Z,98755.09
2023-09-02T10:22:20.514Z,98752.31
2023-09-02T10:25:11.495Z,98760.19
2023-09-02T10:27:42.053Z,98771.00
2023-09-02T10:30:16.885Z,98768.13
2023-09-02T10:32:52.499Z,98772.81
2023-09-02T10:35:23.703Z,98757.75
2023-09-02T10:37:59.899Z,98771.34
2023-09-02T10:40:31.422Z,98774.56
2023-09-02T10:42:59.460Z,98778.88
2023-09-02T10:45:28.584Z,98768.88
2023-09-02T10:47:55.457Z,98772.22
2023-09-02T10:50:24.534Z,98769.13
2023-09-02T10:53:04.113Z,98766.56
2023-09-02T10:56:01.872Z,98767.13
2023-09-02T10:58:37.550Z,98769.22
2023-09-02T11:01:04.453Z,98769.69
2023-09-02T11:03:51.407Z,98758.22
2023-09-02T11:06:18.893Z,98762.47
2023-09-02T11:08:51.013Z,98773.56
2023-09-02T11:11:21.758Z,98768.50
2023-09-02T11:14:07.659Z,98764.50
2023-09-02T11:16:41.918Z,98771.72
2023-09-02T11:19:13.204Z,98767.91
2023-09-02T11:21:44.997Z,98763.66
2023-09-02T11:24:21.817Z,98754.94
2023-09-02T11:26:51.271Z,98762.72
2023-09-02T11:29:27.794Z,98761.91
2023-09-02T11:32:02.400Z,98762.63
2023-09-02T11:34:31.000Z,98757.00
2023-09-02T11:37:02.330Z,98761.31
2023-09-02T11:39:30.681Z,98764.63
2023-09-02T11:42:13.739Z,98768.34
2023-09-02T11:44:51.815Z,98766.81
2023-09-02T11:47:19.025Z,98777.16
2023-09-02T11:49:45.778Z,98792.47
2023-09-02T11:52:12.499Z,98782.38
2023-09-02T11:54:40.456Z,98782.22
2023-09-02T11:57:07.125Z,98775.47
2023-09-02T11:59:33.929Z,98781.63
2023-09-02T12:02:08.901Z,98782.75
2023-09-02T12:04:39.704Z,98790.34
2023-09-02T12:07:10.926Z,98773.34
2023-09-02T12:09:38.933Z,98769.03
2023-09-02T12:12:07.893Z,98773.16
2023-09-02T12:14:37.264Z,98766.47
2023-09-02T12:17:16.837Z,98764.53
2023-09-02T12:19:43.791Z,98764.00
2023-09-02T12:22:21.778Z,98756.63
2023-09-02T12:24:48.660Z,98764.53
2023-09-02T12:27:18.552Z,98769.94
2023-09-02T12:29:56.540Z,98780.41
2023-09-02T12:32:23.914Z,98788.09
2023-09-02T12:34:50.970Z,98786.53
2023-09-02T12:37:19.438Z,98781.75
2023-09-02T12:39:46.284Z,98780.09
2023-09-02T12:42:16.492Z,98769.34
2023-09-02T12:45:03.808Z,98766.25
2023-09-02T12:47:31.172Z,98762.66
2023-09-02T12:50:02.796Z,98769.19
2023-09-02T12:52:31.104Z,98770.81
2023-09-02T12:55:00.214Z,98769.91
2023-09-02T12:57:29.731Z,98765.75
2023-09-02T12:59:56.800Z,98769.91
2023-09-02T13:02:25.615Z,98759.91
2023-09-02T13:04:53.636Z,98765.00
2023-09-02T13:07:21.257Z,98755.13
2023-09-02T13:09:49.310Z,98762.22
2023-09-02T13:12:16.587Z,98756.75
2023-09-02T13:14:44.075Z,98751.59
2023-09-02T13:17:14.531Z,98755.34
2023-09-02T13:19:41.352Z,98755.00
2023-09-02T13:22:10.339Z,98750.13
2023-09-02T13:24:38.836Z,98752.94
2023-09-02T13:27:05.953Z,98752.94
2023-09-02T13:29:34.179Z,98758.13
2023-09-02T13:32:08.092Z,98758.63
2023-09-02T13:34:37.713Z,98761.78
2023-09-02T13:37:19.770Z,98744.00
2023-09-02T13:40:00.228Z,98744.59
2023-09-02T13:42:28.065Z,98751.44
2023-09-02T13:45:10.457Z,98748.09
2023-09-02T13:47:37.484Z,98745.78
2023-09-02T13:50:04.765Z,98739.19
2023-09-02T13:52:31.706Z,98735.22
2023-09-02T13:54:59.815Z,98732.00
2023-09-02T13:57:26.792Z,98739.91
2023-09-02T13:59:58.273Z,98745.66
2023-09-02T14:02:26.644Z,98734.34
2023-09-02T14:04:54.001Z,98748.41
2023-09-02T14:07:21.265Z,98741.66
2023-09-02T14:09:48.343Z,98743.97
2023-09-02T14:12:20.037Z,98746.38
2023-09-02T14:14:47.631Z,98741.22
2023-09-02T14:17:15.193Z,98747.72
2023-09-02T14:19:42.061Z,98748.88
2023-09-02T14:22:09.010Z,98742.50
2023-09-02T14:24:35.910Z,98741.66
2023-09-02T14:27:10.473Z,98741.28
2023-09-02T14:29:38.270Z,98749.38
2023-09-02T14:32:05.998Z,98740.84
2023-09-02T14:34:33.928Z,98744.44
2023-09-02T14:37:02.866Z,98745.34
2023-09-02T14:39:31.345Z,98733.81
2023-09-02T14:41:58.152Z,98736.06
2023-09-02T14:44:25.094Z,98739.88
2023-09-02T14:46:52.134Z,98740.78
2023-09-02T14:49:19.648Z,98743.31
2023-09-02T14:51:48.104Z,98738.75
2023-09-02T14:54:17.001Z,98737.72
2023-09-02T14:56:46.063Z,98742.13
2023-09-02T14:59:31.082Z,98745.28
2023-09-02T15:01:57.906Z,98740.84
2023-09-02T15:04:25.180Z,98737.88
2023-09-02T15:06:52.957Z,98742.34
2023-09-02T15:09:38.975Z,98748.03
2023-09-02T15:12:06.995Z,98751.59
2023-09-02T15:14:36.154Z,98746.06
2023-09-02T15:17:09.312Z,98747.88
2023-09-02T15:19:36.105Z,98754.69
2023-09-02T15:22:03.311Z,98752.28
2023-09-02T15:24:33.599Z,98748.00
2023-09-02T15:27:04.130Z,98753.00
2023-09-02T15:29:30.876Z,98756.50
2023-09-02T15:31:57.995Z,98750.25
2023-09-02T15:34:25.612Z,98752.00
2023-09-02T15:37:00.158Z,98754.63
2023-09-02T15:39:28.781Z,98748.53
2023-09-02T15:41:56.676Z,98747.53
2023-09-02T15:44:23.534Z,98748.47
2023-09-02T15:46:50.280Z,98745.84
2023-09-02T15:49:17.072Z,98752.38
2023-09-02T15:51:43.902Z,98749.13
2023-09-02T15:54:13.462Z,98752.50
2023-09-02T15:56:40.265Z,98753.09
2023-09-02T15:59:07.100Z,98748.97
2023-09-02T16:01:33.992Z,98748.78
2023-09-02T16:04:00.826Z,98748.53
2023-09-02T16:06:27.649Z,98749.41
2023-09-02T16:08:54.881Z,98748.72
2023-09-02T16:11:21.809Z,98745.22
2023-09-02T16:13:48.535Z,98750.56
2023-09-02T16:16:15.392Z,98747.91
2023-09-02T16:18:42.154Z,98750.25
2023-09-02T16:21:09.094Z,98756.94
2023-09-02T16:23:35.800Z,98759.19
2023-09-02T16:26:02.640Z,98762.56
2023-09-02T16:28:29.383Z,98759.63
2023-09-02T16:30:56.129Z,98767.44
2023-09-02T16:33:23.012Z,98771.84
2023-09-02T16:35:50.561Z,98773.56
2023-09-02T16:38:18.488Z,98774.41
2023-09-02T16:40:45.873Z,98767.31
2023-09-02T16:43:17.386Z,98776.72
2023-09-02T16:45:48.522Z,98776.19
2023-09-02T16:48:16.452Z,98780.38
2023-09-02T16:50:46.881Z,98777.38
2023-09-02T16:53:18.027Z,98781.00
2023-09-02T16:55:53.861Z,98776.91
2023-09-02T16:58:20.593Z,98780.81
2023-09-02T17:00:48.048Z,98779.41
2023-09-02T17:03:18.323Z,98788.53
2023-09-02T17:05:46.332Z,98789.38
2023-09-02T17:08:22.034Z,98788.28
2023-09-02T17:10:52.650Z,98786.13
2023-09-02T17:13:19.590Z,98783.94
2023-09-02T17:15:48.644Z,98785.34
2023-09-02T17:18:17.220Z,98784.00
2023-09-02T17:20:44.975Z,98792.25
2023-09-02T17:23:19.173Z,98791.16
2023-09-02T17:25:48.108Z,98789.50
2023-09-02T17:28:21.276Z,98795.00
2023-09-02T17:30:55.265Z,98798.53
2023-09-02T17:33:21.874Z,98804.63
2023-09-02T17:35:48.591Z,98805.72
2023-09-02T17:38:15.386Z,98806.81
2023-09-02T17:40:42.103Z,98802.13
2023-09-02T17:43:09.305Z,98800.75
2023-09-02T17:45:36.021Z,98801.00
2023-09-02T17:48:02.794Z,98807.59
2023-09-02T17:50:29.711Z,98808.41
2023-09-02T17:52:56.508Z,98803.72
2023-09-02T17:55:23.219Z,98805.66
2023-09-02T17:57:50.044Z,98802.88
2023-09-02T18:00:17.042Z,98805.38
2023-09-02T18:02:44.632Z,98809.22
2023-09-02T18:05:12.627Z,98813.63
2023-09-02T18:07:39.772Z,98804.00
2023-09-02T18:10:09.045Z,98799.88
2023-09-02T18:12:36.345Z,98799.03
2023-09-02T18:15:03.190Z,98807.00
2023-09-02T18:17:29.969Z,98798.78
2023-09-02T18:19:56.666Z,98807.00
2023-09-02T18:22:23.506Z,98805.91
2023-09-02T18:24:50.361Z,98809.47
2023-09-02T18:27:17.788Z,98804.53
2023-09-02T18:29:44.527Z,98803.13
2023-09-02T18:32:11.234Z,98808.03
2023-09-02T18:34:37.990Z,98809.13
2023-09-02T18:37:04.988Z,98803.91
2023-09-02T18:39:31.982Z,98808.03
2023-09-02T18:41:59.013Z,98811.09
2023-09-02T18:44:25.807Z,98807.81
2023-09-02T18:46:52.600Z,98809.97
2023-09-02T18:49:19.436Z,98815.75
2023-09-02T18:51:46.300Z,98813.03
2023-09-02T18:54:13.249Z,98823.41
2023-09-02T18:56:40.015Z,98821.44
2023-09-02T18:59:08.711Z,98824.97
2023-09-02T19:01:35.950Z,98821.06
2023-09-02T19:04:03.650Z,98818.25
2023-09-02T19:06:34.960Z,98829.16
2023-09-02T19:09:02.572Z,98815.91
2023-09-02T19:11:30.245Z,98818.28
2023-09-02T19:13:57.756Z,98819.91
2023-09-02T19:16:25.842Z,98821.75
2023-09-02T19:19:10.044Z,98817.53
2023-09-02T19:21:36.869Z,98820.69
2023-09-02T19:24:04.107Z,98817.63
2023-09-02T19:26:30.945Z,98814.25
2023-09-02T19:28:57.717Z,98817.75
2023-09-02T19:31:24.424Z,98823.50
2023-09-02T19:33:51.216Z,98822.47
2023-09-02T19:36:17.973Z,98820.06
2023-09-02T19:38:44.732Z,98821.63
2023-09-02T19:41:11.561Z,98812.56
2023-09-02T19:43:39.610Z,98814.03
2023-09-02T19:46:07.335Z,98810.72
2023-09-02T19:48:34.295Z,98816.84
2023-09-02T19:51:01.107Z,98814.53
2023-09-02T19:53:28.054Z,98816.44
2023-09-02T19:55:56.418Z,98813.75
2023-09-02T19:58:23.310Z,98809.09
2023-09-02T20:00:50.032Z,98815.47
2023-09-02T20:03:18.342Z,98804.75
2023-09-02T20:05:46.261Z,98806.16
2023-09-02T20:08:15.770Z,98798.19
2023-09-02T20:10:42.662Z,98802.53
2023-09-02T20:13:09.444Z,98805.41
2023-09-02T20:15:36.741Z,98802.09
2023-09-02T20:18:04.317Z,98807.19
2023-09-02T20:20:32.679Z,98801.06
2023-09-02T20:23:00.058Z,98792.47
2023-09-02T20:25:31.354Z,98796.31
2023-09-02T20:27:58.133Z,98785.75
2023-09-02T20:30:24.908Z,98794.59
2023-09-02T20:32:53.010Z,98797.00
2023-09-02T20:35:19.821Z,98792.66
2023-09-02T20:37:46.829Z,98795.25
2023-09-02T20:40:13.757Z,98793.56
2023-09-02T20:42:40.522Z,98789.00
2023-09-02T20:45:07.487Z,98799.25
2023-09-02T20:47:34.258Z,98799.88
2023-09-02T20:50:01.890Z,98800.56
2023-09-02T20:52:28.719Z,98806.44
2023-09-02T20:54:58.160Z,98804.03
2023-09-02T20:57:24.976Z,98809.53
2023-09-02T20:59:53.119Z,98810.63
2023-09-02T21:02:20.413Z,98807.56
2023-09-02T21:04:49.008Z,98811.91
2023-09-02T21:07:15.949Z,98809.72
2023-09-02T21:09:42.856Z,98814.59
2023-09-02T21:12:11.747Z,98814.81
2023-09-02T21:14:38.555Z,98808.00
2023-09-02T21:17:05.533Z,98813.41
2023-09-02T21:19:36.904Z,98815.13
2023-09-02T21:22:03.818Z,98811.25
2023-09-02T21:24:30.588Z,98807.69
2023-09-02T21:26:58.526Z,98801.22
2023-09-02T21:29:25.553Z,98798.81
2023-09-02T21:31:52.284Z,98806.59
2023-09-02T21:34:19.033Z,98807.00
2023-09-02T21:36:46.243Z,98802.28
2023-09-02T21:39:12.963Z,98800.31
2023-09-02T21:41:39.733Z,98805.69
2023-09-02T21:44:06.597Z,98804.38
2023-09-02T21:46:34.241Z,98805.84
2023-09-02T21:49:01.246Z,98803.94
2023-09-02T21:51:28.014Z,98813.78
2023-09-02T21:53:57.932Z,98815.69
2023-09-02T21:56:24.804Z,98821.81
2023-09-02T21:58:51.525Z,98815.44
2023-09-02T22:01:19.628Z,98807.56
2023-09-02T22:03:46.806Z,98811.06
2023-09-02T22:06:15.541Z,98809.41
2023-09-02T22:08:46.912Z,98822.28
2023-09-02T22:11:14.629Z,98812.66
2023-09-02T22:13:44.648Z,98823.97
2023-09-02T22:16:11.917Z,98824.25
2023-09-02T22:18:38.686Z,98825.78
2023-09-02T22:21:08.103Z,98833.66
2023-09-02T22:23:35.504Z,98830.47
2023-09-02T22:26:05.558Z,98827.34
2023-09-02T22:28:35.741Z,98820.47
2023-09-02T22:31:03.916Z,98822.56
2023-09-02T22:33:32.516Z,98815.88
2023-09-02T22:35:59.826Z,98813.38
2023-09-02T22:38:41.281Z,98815.47
2023-09-02T22:41:14.406Z,98809.25
2023-09-02T22:43:41.196Z,98804.75
2023-09-02T22:46:09.771Z,98805.13
2023-09-02T22:48:36.655Z,98800.03
2023-09-02T22:51:04.725Z,98805.06
2023-09-02T22:53:31.632Z,98807.28
2023-09-02T22:56:01.424Z,98808.59
2023-09-02T22:58:28.160Z,98806.78
2023-09-02T23:00:54.928Z,98805.28
2023-09-02T23:03:22.009Z,98802.16
2023-09-02T23:05:48.969Z,98808.59
2023-09-02T23:08:15.845Z,98801.56
2023-09-02T23:10:43.950Z,98796.19
2023-09-02T23:13:10.729Z,98796.63
2023-09-02T23:15:37.576Z,98792.50
2023-09-02T23:18:05.028Z,98795.75
2023-09-02T23:20:31.806Z,98793.13
2023-09-02T23:22:59.019Z,98794.16
2023-09-02T23:25:25.998Z,98797.22
2023-09-02T23:27:53.366Z,98786.09
2023-09-02T23:30:21.026Z,98783.69
2023-09-02T23:32:53.051Z,98788.72
2023-09-02T23:35:19.841Z,98792.09
2023-09-02T23:37:46.761Z,98790.94
2023-09-02T23:40:16.569Z,98790.44
2023-09-02T23:42:44.171Z,98786.75
2023-09-02T23:45:11.829Z,98783.75
2023-09-02T23:47:38.811Z,98787.50
2023-09-02T23:50:06.057Z,98787.00
2023-09-02T23:52:34.464Z,98790.81
2023-09-02T23:55:01.874Z,98800.06
2023-09-02T23:57:28.644Z,98798.81
2023-09-02T23:59:55.375Z,98797.50
